createdAt,value
2022-11-28T00:01:38.580Z,24.25
2022-11-28T00:04:06.852Z,26.35
2022-11-28T00:06:38.449Z,25.73
2022-11-28T00:09:07.057Z,26.80
2022-11-28T00:11:34.921Z,27.48
2022-11-28T00:14:02.629Z,26.92
2022-11-28T00:16:30.152Z,27.02
2022-11-28T00:19:00.529Z,24.10
2022-11-28T00:21:28.780Z,26.33
2022-11-28T00:23:56.208Z,23.42
2022-11-28T00:26:26.926Z,23.98
2022-11-28T00:28:56.855Z,20.75
2022-11-28T00:31:27.770Z,22.13
2022-11-28T00:33:56.159Z,22.20
2022-11-28T00:36:24.728Z,26.20
2022-11-28T00:38:52.405Z,26.85
2022-11-28T00:41:26.502Z,25.00
2022-11-28T00:43:55.060Z,22.90
2022-11-28T00:46:23.274Z,22.10
2022-11-28T00:48:51.508Z,22.27
2022-11-28T00:51:21.600Z,23.67
2022-11-28T00:53:51.870Z,20.02
2022-11-28T00:56:22.309Z,24.25
2022-11-28T00:58:50.056Z,25.73
2022-11-28T01:01:23.816Z,22.35
2022-11-28T01:03:53.095Z,25.85
2022-11-28T01:06:30.059Z,26.50
2022-11-28T01:09:11.131Z,25.85
2022-11-28T01:11:40.137Z,24.35
2022-11-28T01:14:08.669Z,22.08
2022-11-28T01:16:37.322Z,25.77
2022-11-28T01:19:05.306Z,27.80
2022-11-28T01:21:33.536Z,25.15
2022-11-28T01:24:01.045Z,27.67
2022-11-28T01:26:30.135Z,25.95
2022-11-28T01:29:00.038Z,24.27
2022-11-28T01:31:29.907Z,25.85
2022-11-28T01:33:58.509Z,22.50
2022-11-28T01:36:27.054Z,27.38
2022-11-28T01:38:54.869Z,27.25
2022-11-28T01:41:26.989Z,21.23
2022-11-28T01:43:58.226Z,19.95
2022-11-28T01:46:25.863Z,23.70
2022-11-28T01:48:56.832Z,25.08
2022-11-28T01:51:24.809Z,25.73
2022-11-28T01:53:52.809Z,23.85
2022-11-28T01:56:35.797Z,28.17
2022-11-28T01:59:07.840Z,27.02
2022-11-28T02:01:35.539Z,23.08
2022-11-28T02:04:04.457Z,22.58
2022-11-28T02:06:33.318Z,28.48
2022-11-28T02:09:01.230Z,24.33
2022-11-28T02:11:34.328Z,24.20
2022-11-28T02:14:22.078Z,26.17
2022-11-28T02:17:04.578Z,29.95
2022-11-28T02:20:01.507Z,25.35
2022-11-28T02:22:28.975Z,29.35
2022-11-28T02:25:15.059Z,23.55
2022-11-28T02:27:48.237Z,23.95
2022-11-28T02:30:21.254Z,30.42
2022-11-28T02:33:10.299Z,25.55
2022-11-28T02:35:50.344Z,27.52
2022-11-28T02:38:26.597Z,24.50
2022-11-28T02:41:15.987Z,26.02
2022-11-28T02:44:06.415Z,28.08
2022-11-28T02:46:36.793Z,28.75
2022-11-28T02:49:07.449Z,30.58
2022-11-28T02:52:13.604Z,27.80
2022-11-28T02:54:43.229Z,28.58
2022-11-28T02:57:11.108Z,29.58
2022-11-28T02:59:38.485Z,31.80
2022-11-28T03:02:14.173Z,31.25
2022-11-28T03:05:19.267Z,25.73
2022-11-28T03:08:28.167Z,33.03
2022-11-28T03:11:20.168Z,29.42
2022-11-28T03:13:56.620Z,27.92
2022-11-28T03:16:57.645Z,27.88
2022-11-28T03:19:37.683Z,26.98
2022-11-28T03:22:20.578Z,29.85
2022-11-28T03:25:15.889Z,24.48
2022-11-28T03:27:54.127Z,27.50
2022-11-28T03:30:41.003Z,30.88
2022-11-28T03:33:09.859Z,33.17
2022-11-28T03:35:46.539Z,31.35
2022-11-28T03:38:21.916Z,31.08
2022-11-28T03:40:53.843Z,31.73
2022-11-28T03:43:32.313Z,30.10
2022-11-28T03:46:06.277Z,30.20
2022-11-28T03:48:42.031Z,29.77
2022-11-28T03:51:27.736Z,27.23
2022-11-28T03:54:22.219Z,31.42
2022-11-28T03:56:57.558Z,27.40
2022-11-28T03:59:51.748Z,28.00
2022-11-28T04:05:04.251Z,30.73
2022-11-28T04:07:59.062Z,28.85
2022-11-28T04:10:39.038Z,32.13
2022-11-28T04:13:20.404Z,28.33
2022-11-28T04:15:58.929Z,32.10
2022-11-28T04:18:54.075Z,27.60
2022-11-28T04:21:34.335Z,33.17
2022-11-28T04:24:06.166Z,32.13
2022-11-28T04:26:37.595Z,34.97
2022-11-28T04:29:14.003Z,31.45
2022-11-28T04:31:43.859Z,35.20
2022-11-28T04:34:15.943Z,34.45
2022-11-28T04:36:45.456Z,37.67
2022-11-28T04:39:16.371Z,35.05
2022-11-28T04:41:53.515Z,35.85
2022-11-28T04:44:31.508Z,39.67
2022-11-28T04:46:59.832Z,34.92
2022-11-28T04:49:29.892Z,34.78
2022-11-28T04:52:03.315Z,38.83
2022-11-28T04:54:38.581Z,38.88
2022-11-28T04:57:21.996Z,35.40
2022-11-28T04:59:50.318Z,37.83
2022-11-28T05:02:19.325Z,39.97
2022-11-28T05:04:47.648Z,37.00
2022-11-28T05:07:15.169Z,36.53
2022-11-28T05:09:42.749Z,37.88
2022-11-28T05:12:10.275Z,39.80
2022-11-28T05:14:37.816Z,40.42
2022-11-28T05:17:05.285Z,42.05
2022-11-28T05:19:32.817Z,39.20
2022-11-28T05:22:00.337Z,44.42
2022-11-28T05:24:32.250Z,45.00
2022-11-28T05:27:00.035Z,37.78
2022-11-28T05:29:27.556Z,37.67
2022-11-28T05:31:55.202Z,36.25
2022-11-28T05:34:22.826Z,37.10
2022-11-28T05:36:50.386Z,42.85
2022-11-28T05:39:17.856Z,39.53
2022-11-28T05:41:45.384Z,36.90
2022-11-28T05:44:12.798Z,41.88
2022-11-28T05:46:40.636Z,34.45
2022-11-28T05:49:08.814Z,33.85
2022-11-28T05:51:36.415Z,39.53
2022-11-28T05:54:04.125Z,36.10
2022-11-28T05:56:31.601Z,38.70
2022-11-28T05:58:59.205Z,37.42
2022-11-28T06:01:29.155Z,41.47
2022-11-28T06:04:01.248Z,37.55
2022-11-28T06:06:31.389Z,39.67
2022-11-28T06:08:59.303Z,34.05
2022-11-28T06:11:29.155Z,37.45
2022-11-28T06:13:57.006Z,35.33
2022-11-28T06:16:27.121Z,30.45
2022-11-28T06:18:57.032Z,31.92
2022-11-28T06:21:25.266Z,32.38
2022-11-28T06:23:52.794Z,38.00
2022-11-28T06:26:22.320Z,35.97
2022-11-28T06:28:50.296Z,30.75
2022-11-28T06:31:21.143Z,33.30
2022-11-28T06:33:49.181Z,34.53
2022-11-28T06:36:18.825Z,33.65
2022-11-28T06:38:46.473Z,33.97
2022-11-28T06:41:16.922Z,32.33
2022-11-28T06:43:44.557Z,33.47
2022-11-28T06:46:17.267Z,31.48
2022-11-28T06:48:45.615Z,35.38
2022-11-28T06:51:13.986Z,32.72
2022-11-28T06:53:42.133Z,33.53
2022-11-28T06:56:15.678Z,35.67
2022-11-28T06:58:44.267Z,33.45
2022-11-28T07:01:15.940Z,32.78
2022-11-28T07:03:44.835Z,32.45
2022-11-28T07:06:14.131Z,32.83
2022-11-28T07:08:41.886Z,30.65
2022-11-28T07:11:21.065Z,39.00
2022-11-28T07:13:50.023Z,30.52
2022-11-28T07:16:27.092Z,36.13
2022-11-28T07:18:56.224Z,31.63
2022-11-28T07:21:24.493Z,34.50
2022-11-28T07:23:52.070Z,31.88
2022-11-28T07:26:21.604Z,33.63
2022-11-28T07:28:50.241Z,37.42
2022-11-28T07:31:25.506Z,29.77
2022-11-28T07:33:53.115Z,29.02
2022-11-28T07:36:26.593Z,32.33
2022-11-28T07:38:59.785Z,28.48
2022-11-28T07:41:28.863Z,29.10
2022-11-28T07:44:02.270Z,31.20
2022-11-28T07:46:31.889Z,27.38
2022-11-28T07:48:59.530Z,24.58
2022-11-28T07:51:32.675Z,27.65
2022-11-28T07:54:01.200Z,30.27
2022-11-28T07:56:50.148Z,25.55
2022-11-28T07:59:18.927Z,31.20
2022-11-28T08:01:46.520Z,30.33
2022-11-28T08:04:14.115Z,28.42
2022-11-28T08:06:44.442Z,29.85
2022-11-28T08:09:12.291Z,30.48
2022-11-28T08:11:40.934Z,29.20
2022-11-28T08:14:08.929Z,24.60
2022-11-28T08:16:37.163Z,26.50
2022-11-28T08:19:04.803Z,25.88
2022-11-28T08:21:33.784Z,26.67
2022-11-28T08:24:02.435Z,26.23
2022-11-28T08:26:31.619Z,25.55
2022-11-28T08:29:00.733Z,24.42
2022-11-28T08:31:39.163Z,26.23
2022-11-28T08:34:09.972Z,25.77
2022-11-28T08:36:37.989Z,26.42
2022-11-28T08:41:57.440Z,26.02
2022-11-28T08:44:30.276Z,28.80
2022-11-28T08:46:58.091Z,33.17
2022-11-28T08:49:25.524Z,25.77
2022-11-28T08:51:53.056Z,27.02
2022-11-28T08:54:21.105Z,26.80
2022-11-28T08:56:48.809Z,30.80
2022-11-28T08:59:16.240Z,28.40
2022-11-28T09:01:43.799Z,28.38
2022-11-28T09:04:11.510Z,27.77
2022-11-28T09:06:40.051Z,31.08
2022-11-28T09:09:09.240Z,29.67
2022-11-28T09:11:37.564Z,27.45
2022-11-28T09:14:05.145Z,30.17
2022-11-28T09:16:32.638Z,27.58
2022-11-28T09:19:00.362Z,30.85
2022-11-28T09:21:28.053Z,30.05
2022-11-28T09:23:56.763Z,26.88
2022-11-28T09:26:25.414Z,33.10
2022-11-28T09:28:53.829Z,37.50
2022-11-28T09:31:21.702Z,28.10
2022-11-28T09:33:49.621Z,31.80
2022-11-28T09:36:20.903Z,33.67
2022-11-28T09:38:49.075Z,32.03
2022-11-28T09:41:28.812Z,31.75
2022-11-28T09:44:01.822Z,31.05
2022-11-28T09:46:34.496Z,30.30
2022-11-28T09:49:09.487Z,29.85
2022-11-28T09:51:53.213Z,34.13
2022-11-28T09:54:29.612Z,35.10
2022-11-28T09:56:59.102Z,32.13
2022-11-28T09:59:30.125Z,36.15
2022-11-28T10:02:09.872Z,35.47
2022-11-28T10:04:49.169Z,37.28
2022-11-28T10:07:26.995Z,32.17
2022-11-28T10:10:11.574Z,34.70
2022-11-28T10:13:10.132Z,37.25
2022-11-28T10:15:50.823Z,40.38
2022-11-28T10:18:38.563Z,44.45
2022-11-28T10:21:35.188Z,39.80
2022-11-28T10:24:12.290Z,38.50
2022-11-28T10:26:45.472Z,42.30
2022-11-28T10:29:37.727Z,40.25
2022-11-28T10:32:06.365Z,39.65
2022-11-28T10:34:46.105Z,39.05
2022-11-28T10:37:25.152Z,41.03
2022-11-28T10:39:53.201Z,39.88
2022-11-28T10:42:37.931Z,39.42
2022-11-28T10:45:30.388Z,41.90
2022-11-28T10:48:38.127Z,39.53
2022-11-28T10:51:04.453Z,38.33
2022-11-28T10:53:41.828Z,43.70
2022-11-28T10:56:40.051Z,47.72
2022-11-28T10:59:31.771Z,42.30
2022-11-28T11:02:04.128Z,42.78
2022-11-28T11:04:35.694Z,39.55
2022-11-28T11:07:20.139Z,38.05
2022-11-28T11:09:49.256Z,40.92
2022-11-28T11:12:31.550Z,39.47
2022-11-28T11:14:59.169Z,37.30
2022-11-28T11:17:36.359Z,40.38
2022-11-28T11:20:29.902Z,38.83
2022-11-28T11:22:59.988Z,35.10
2022-11-28T11:25:30.063Z,35.90
2022-11-28T11:28:03.111Z,38.65
2022-11-28T11:30:42.889Z,40.97
2022-11-28T11:33:17.551Z,36.67
2022-11-28T11:35:48.861Z,42.47
2022-11-28T11:38:22.221Z,43.15
2022-11-28T11:40:51.056Z,36.92
2022-11-28T11:43:30.549Z,37.30
2022-11-28T11:46:24.466Z,39.35
2022-11-28T11:48:53.671Z,43.67
2022-11-28T11:51:24.169Z,36.85
2022-11-28T11:54:18.269Z,39.15
2022-11-28T11:56:53.577Z,41.53
2022-11-28T11:59:39.297Z,42.70
2022-11-28T12:02:35.192Z,40.33
2022-11-28T12:05:16.727Z,41.50
2022-11-28T12:08:07.177Z,40.63
2022-11-28T12:10:38.002Z,37.05
2022-11-28T12:13:05.512Z,39.05
2022-11-28T12:15:52.681Z,38.53
2022-11-28T12:18:55.048Z,37.10
2022-11-28T12:21:28.485Z,36.92
2022-11-28T12:24:04.239Z,33.72
2022-11-28T12:26:31.828Z,34.75
2022-11-28T12:32:18.233Z,31.95
2022-11-28T12:35:04.907Z,32.83
2022-11-28T12:38:13.766Z,37.65
2022-11-28T12:41:02.085Z,36.38
2022-11-28T12:43:47.861Z,36.97
2022-11-28T12:46:54.976Z,34.30
2022-11-28T12:49:52.965Z,35.95
2022-11-28T12:52:29.130Z,37.60
2022-11-28T12:55:28.765Z,31.58
2022-11-28T12:58:06.672Z,31.73
2022-11-28T13:00:46.542Z,31.83
2022-11-28T13:03:25.445Z,34.78
2022-11-28T13:06:04.214Z,31.05
2022-11-28T13:08:34.722Z,36.45
2022-11-28T13:11:20.975Z,35.88
2022-11-28T13:13:54.722Z,34.53
2022-11-28T13:18:58.846Z,38.03
2022-11-28T13:21:33.899Z,39.67
2022-11-28T13:24:27.848Z,42.70
2022-11-28T13:27:16.988Z,45.20
2022-11-28T13:30:09.521Z,43.60
2022-11-28T13:32:50.014Z,49.20
2022-11-28T13:35:19.864Z,45.95
2022-11-28T13:40:58.091Z,43.70
2022-11-28T13:43:50.810Z,49.15
2022-11-28T13:46:19.361Z,41.95
2022-11-28T13:51:36.265Z,43.22
2022-11-28T13:54:21.620Z,48.65
2022-11-28T13:57:22.635Z,46.08
2022-11-28T14:00:05.930Z,40.95
2022-11-28T14:02:47.008Z,46.30
2022-11-28T14:05:35.059Z,42.85
2022-11-28T14:08:05.160Z,44.55
2022-11-28T14:10:49.774Z,43.53
2022-11-28T14:13:52.550Z,45.40
2022-11-28T14:16:23.179Z,38.05
2022-11-28T14:19:23.270Z,44.25
2022-11-28T14:21:56.977Z,39.15
2022-11-28T14:24:46.113Z,36.92
2022-11-28T14:27:32.244Z,36.63
2022-11-28T14:30:01.265Z,38.58
2022-11-28T14:32:39.280Z,40.10
2022-11-28T14:35:17.841Z,42.65
2022-11-28T14:37:54.372Z,44.40
2022-11-28T14:40:59.705Z,40.95
2022-11-28T14:43:41.213Z,42.10
2022-11-28T14:47:13.505Z,43.17
2022-11-28T14:49:41.079Z,45.67
2022-11-28T14:52:44.697Z,43.90
2022-11-28T14:55:19.036Z,46.83
2022-11-28T14:57:57.799Z,41.80
2022-11-28T15:00:28.101Z,42.88
2022-11-28T15:03:40.420Z,45.22
2022-11-28T15:06:22.013Z,46.67
2022-11-28T15:09:04.044Z,46.08
2022-11-28T15:11:46.741Z,48.35
2022-11-28T15:14:14.259Z,46.97
2022-11-28T15:16:50.266Z,47.20
2022-11-28T15:19:20.291Z,51.15
2022-11-28T15:21:51.404Z,47.55
2022-11-28T15:24:31.786Z,48.38
2022-11-28T15:27:26.765Z,49.03
2022-11-28T15:29:55.213Z,50.97
2022-11-28T15:32:24.003Z,52.38
2022-11-28T15:35:09.254Z,53.70
2022-11-28T15:37:50.768Z,54.42
2022-11-28T15:40:26.463Z,54.47
2022-11-28T15:42:55.083Z,56.00
2022-11-28T15:45:26.131Z,55.47
2022-11-28T15:47:55.718Z,50.85
2022-11-28T15:50:28.792Z,49.30
2022-11-28T15:53:17.568Z,62.97
2022-11-28T15:55:45.979Z,57.53
2022-11-28T15:58:31.792Z,48.13
2022-11-28T16:01:03.441Z,56.03
2022-11-28T16:03:37.211Z,51.88
2022-11-28T16:06:06.052Z,47.80
2022-11-28T16:08:41.072Z,51.22
2022-11-28T16:11:10.831Z,48.05
2022-11-28T16:13:40.341Z,53.75
2022-11-28T16:16:35.849Z,51.10
2022-11-28T16:19:09.261Z,53.08
2022-11-28T16:21:45.462Z,50.30
2022-11-28T16:24:42.104Z,48.28
2022-11-28T16:27:33.843Z,49.38
2022-11-28T16:30:11.487Z,47.75
2022-11-28T16:32:40.434Z,50.88
2022-11-28T16:35:12.617Z,52.42
2022-11-28T16:37:40.161Z,53.33
2022-11-28T16:40:21.093Z,53.22
2022-11-28T16:42:56.465Z,54.40
2022-11-28T16:45:32.835Z,53.13
2022-11-28T16:48:19.426Z,52.83
2022-11-28T16:51:21.735Z,50.58
2022-11-28T16:53:52.342Z,49.47
2022-11-28T16:56:32.321Z,50.22
2022-11-28T16:59:19.437Z,53.78
2022-11-28T17:01:51.562Z,47.20
2022-11-28T17:04:25.060Z,50.92
2022-11-28T17:06:54.171Z,47.38
2022-11-28T17:09:21.649Z,53.88
2022-11-28T17:12:15.007Z,48.58
2022-11-28T17:14:44.213Z,55.97
2022-11-28T17:17:17.063Z,48.40
2022-11-28T17:19:45.751Z,52.63
2022-11-28T17:22:16.410Z,47.22
2022-11-28T17:24:44.740Z,45.65
2022-11-28T17:27:13.981Z,46.65
2022-11-28T17:29:42.210Z,48.70
2022-11-28T17:32:14.680Z,47.72
2022-11-28T17:34:43.133Z,49.65
2022-11-28T17:37:10.829Z,48.40
2022-11-28T17:39:38.937Z,45.60
2022-11-28T17:42:06.830Z,43.60
2022-11-28T17:44:36.508Z,46.90
2022-11-28T17:47:05.149Z,45.83
2022-11-28T17:49:33.461Z,51.38
2022-11-28T17:52:01.262Z,48.40
2022-11-28T17:54:29.876Z,49.33
2022-11-28T17:56:57.866Z,51.92
2022-11-28T17:59:27.088Z,47.00
2022-11-28T18:01:55.057Z,46.90
2022-11-28T18:04:26.403Z,50.65
2022-11-28T18:06:54.189Z,48.58
2022-11-28T18:09:21.667Z,55.85
2022-11-28T18:11:49.579Z,51.72
2022-11-28T18:14:19.620Z,45.70
2022-11-28T18:16:48.315Z,47.08
2022-11-28T18:19:15.852Z,45.30
2022-11-28T18:21:43.436Z,50.90
2022-11-28T18:24:11.013Z,49.25
2022-11-28T18:26:39.475Z,50.15
2022-11-28T18:29:08.745Z,48.25
2022-11-28T18:31:38.060Z,48.90
2022-11-28T18:34:07.828Z,50.42
2022-11-28T18:36:36.970Z,49.08
2022-11-28T18:39:12.367Z,49.08
2022-11-28T18:41:40.823Z,49.60
2022-11-28T18:44:10.116Z,44.72
2022-11-28T18:46:39.425Z,48.10
2022-11-28T18:49:08.397Z,47.72
2022-11-28T18:51:36.163Z,47.65
2022-11-28T18:54:05.516Z,45.97
2022-11-28T18:56:34.861Z,43.60
2022-11-28T18:59:02.965Z,57.08
2022-11-28T19:01:33.822Z,47.75
2022-11-28T19:04:11.675Z,50.83
2022-11-28T19:06:40.694Z,59.00
2022-11-28T19:09:14.261Z,62.03
2022-11-28T19:11:43.137Z,60.47
2022-11-28T19:14:15.537Z,62.90
2022-11-28T19:16:43.810Z,60.85
2022-11-28T19:19:17.055Z,67.38
2022-11-28T19:21:44.647Z,63.47
2022-11-28T19:24:13.756Z,66.57
2022-11-28T19:26:41.575Z,60.80
2022-11-28T19:29:09.998Z,63.35
2022-11-28T19:31:38.929Z,62.45
2022-11-28T19:34:18.464Z,54.40
2022-11-28T19:36:49.239Z,63.83
2022-11-28T19:39:18.010Z,55.72
2022-11-28T19:41:46.711Z,53.83
2022-11-28T19:44:15.113Z,53.55
2022-11-28T19:50:55.820Z,51.53
2022-11-28T19:53:24.087Z,50.20
2022-11-28T19:55:52.247Z,50.75
2022-11-28T19:58:20.038Z,49.83
2022-11-28T20:00:47.784Z,52.50
2022-11-28T20:03:16.018Z,52.28
2022-11-28T20:05:44.144Z,50.85
2022-11-28T20:08:11.876Z,50.40
2022-11-28T20:10:40.053Z,51.00
2022-11-28T20:13:08.107Z,46.85
2022-11-28T20:15:37.043Z,47.30
2022-11-28T20:18:05.334Z,53.13
2022-11-28T20:20:34.028Z,46.00
2022-11-28T20:23:01.818Z,50.60
2022-11-28T20:25:29.471Z,48.03
2022-11-28T20:27:57.260Z,49.25
2022-11-28T20:30:24.828Z,46.72
2022-11-28T20:32:53.718Z,48.45
2022-11-28T20:35:23.398Z,46.33
2022-11-28T20:37:51.059Z,49.80
2022-11-28T20:40:18.640Z,46.05
2022-11-28T20:42:46.179Z,47.05
2022-11-28T20:45:13.569Z,45.28
2022-11-28T20:47:44.228Z,44.45
2022-11-28T20:50:14.184Z,41.97
2022-11-28T20:52:41.601Z,46.63
2022-11-28T20:55:09.226Z,44.67
2022-11-28T20:57:36.754Z,46.58
2022-11-28T21:00:04.557Z,43.83
2022-11-28T21:02:32.112Z,38.40
2022-11-28T21:04:59.668Z,44.38
2022-11-28T21:07:27.125Z,40.53
2022-11-28T21:09:59.929Z,41.55
2022-11-28T21:12:27.443Z,39.67
2022-11-28T21:14:54.875Z,45.65
2022-11-28T21:17:22.464Z,43.45
2022-11-28T21:19:50.006Z,41.42
2022-11-28T21:22:17.473Z,37.80
2022-11-28T21:24:49.196Z,40.30
2022-11-28T21:27:17.643Z,45.25
2022-11-28T21:29:45.733Z,45.95
2022-11-28T21:32:16.054Z,45.60
2022-11-28T21:34:43.607Z,41.67
2022-11-28T21:37:11.027Z,40.33
2022-11-28T21:39:38.675Z,39.72
2022-11-28T21:42:07.563Z,37.72
2022-11-28T21:44:34.946Z,40.85
2022-11-28T21:47:05.122Z,35.70
2022-11-28T21:49:33.171Z,45.30
2022-11-28T21:52:00.633Z,41.85
2022-11-28T21:54:28.184Z,41.67
2022-11-28T21:56:55.677Z,45.53
2022-11-28T21:59:23.198Z,47.33
2022-11-28T22:01:50.812Z,41.47
2022-11-28T22:04:22.076Z,45.30
2022-11-28T22:06:51.388Z,46.33
2022-11-28T22:09:18.928Z,43.65
2022-11-28T22:11:46.303Z,49.25
2022-11-28T22:14:13.863Z,45.35
2022-11-28T22:16:41.618Z,46.28
2022-11-28T22:19:09.336Z,48.10
2022-11-28T22:21:54.133Z,49.83
2022-11-28T22:24:23.633Z,46.20
2022-11-28T22:26:51.128Z,44.08
2022-11-28T22:29:19.369Z,48.50
2022-11-28T22:31:46.892Z,50.75
2022-11-28T22:34:15.383Z,46.33
2022-11-28T22:36:43.104Z,51.58
2022-11-28T22:39:11.622Z,53.03
2022-11-28T22:41:39.917Z,47.20
2022-11-28T22:44:09.842Z,46.88
2022-11-28T22:46:37.712Z,46.47
2022-11-28T22:49:05.288Z,49.42
2022-11-28T22:51:33.550Z,49.22
2022-11-28T22:54:02.587Z,52.47
2022-11-28T22:56:32.248Z,48.25
2022-11-28T22:59:01.319Z,52.47
2022-11-28T23:01:32.386Z,51.00
2022-11-28T23:04:01.149Z,53.13
2022-11-28T23:06:32.827Z,52.53
2022-11-28T23:09:02.684Z,48.75
2022-11-28T23:11:33.136Z,49.88
2022-11-28T23:14:01.956Z,50.03
2022-11-28T23:16:38.342Z,53.03
2022-11-28T23:19:10.653Z,44.95
2022-11-28T23:21:40.920Z,56.05
2022-11-28T23:24:20.725Z,50.55
2022-11-28T23:26:51.056Z,50.80
2022-11-28T23:29:19.997Z,51.80
2022-11-28T23:31:49.496Z,47.92
2022-11-28T23:34:17.093Z,54.92
2022-11-28T23:36:47.046Z,50.17
2022-11-28T23:39:20.206Z,49.05
2022-11-28T23:41:48.647Z,48.10
2022-11-28T23:44:17.687Z,51.08
2022-11-28T23:46:46.869Z,52.10
2022-11-28T23:49:14.397Z,49.47
2022-11-28T23:51:42.233Z,47.40
2022-11-28T23:54:11.751Z,55.03
2022-11-28T23:56:40.568Z,51.92
2022-11-28T23:59:10.989Z,49.78
